Time;durP1;ratioP1;P1;durP2;ratioP2;P2;SDS_P1;SDS_P2;PMS_P1;PMS_P2;Temp;Humidity;BMP_temperature;BMP_pressure;BME280_temperature;BME280_humidity;BME280_pressure;Samples;Min_cycle;Max_cycle;Signal;HPM_P1;HPM_P2
2023/05/31 00:01:58;;;;;;;12.02;3.35;;;16.30;96.30;;;;;;5010337;28;20046;-49
2023/05/31 00:04:24;;;;;;;15.52;3.38;;;16.20;96.40;;;;;;5009057;28;20398;-51
2023/05/31 00:06:50;;;;;;;10.57;2.45;;;16.20;96.50;;;;;;5011293;28;20018;-49
2023/05/31 00:09:16;;;;;;;7.82;2.42;;;16.10;96.90;;;;;;5012018;28;20397;-50
2023/05/31 00:11:41;;;;;;;9.65;2.47;;;16.20;96.60;;;;;;5010582;28;20160;-52
2023/05/31 00:14:07;;;;;;;9.88;3.88;;;16.20;96.90;;;;;;5007195;28;20112;-52
2023/05/31 00:16:32;;;;;;;10.15;2.47;;;16.00;96.90;;;;;;5009921;28;20026;-52
2023/05/31 00:18:58;;;;;;;9.27;3.05;;;16.00;96.90;;;;;;5010391;28;20046;-47
2023/05/31 00:21:23;;;;;;;7.97;2.20;;;16.00;96.90;;;;;;5010338;28;20030;-50
2023/05/31 00:23:49;;;;;;;10.55;2.88;;;15.90;96.70;;;;;;5009780;28;20533;-50
2023/05/31 00:26:14;;;;;;;5.03;2.90;;;15.90;97.40;;;;;;5010568;28;20072;-51
2023/05/31 00:28:40;;;;;;;9.30;2.72;;;15.90;97.50;;;;;;5010443;28;20026;-50
2023/05/31 00:31:05;;;;;;;6.97;3.17;;;15.80;97.70;;;;;;5008704;28;20508;-47
2023/05/31 00:33:31;;;;;;;13.75;4.40;;;15.80;97.90;;;;;;5009993;28;20026;-50
2023/05/31 00:35:56;;;;;;;10.50;2.80;;;15.80;98.00;;;;;;5010228;28;20029;-49
2023/05/31 00:38:22;;;;;;;6.32;2.70;;;15.80;98.10;;;;;;5010254;28;20026;-48
2023/05/31 00:40:48;;;;;;;10.40;3.30;;;15.80;98.40;;;;;;5009980;28;20105;-53
2023/05/31 00:43:13;;;;;;;6.97;2.60;;;15.80;98.50;;;;;;5009922;28;20418;-52
2023/05/31 00:45:39;;;;;;;12.77;4.28;;;15.70;98.60;;;;;;5010223;28;20485;-49
2023/05/31 00:48:05;;;;;;;13.25;3.70;;;15.70;98.50;;;;;;5010141;28;20033;-49
2023/05/31 00:50:31;;;;;;;7.30;2.55;;;15.70;99.00;;;;;;5009696;28;20025;-48
2023/05/31 00:52:57;;;;;;;8.25;3.42;;;15.70;99.10;;;;;;5009634;28;20033;-46
2023/05/31 00:55:24;;;;;;;11.63;2.75;;;15.70;99.20;;;;;;5010224;28;20034;-53
2023/05/31 00:57:50;;;;;;;9.15;2.85;;;15.60;99.10;;;;;;5010392;28;20026;-48
2023/05/31 01:00:16;;;;;;;13.02;3.70;;;15.60;99.60;;;;;;5009723;28;20030;-47
2023/05/31 01:02:43;;;;;;;12.52;3.05;;;15.60;99.60;;;;;;5009607;28;20022;-52
2023/05/31 01:05:09;;;;;;;9.35;3.13;;;15.50;99.90;;;;;;5010419;28;20021;-47
2023/05/31 01:07:35;;;;;;;7.82;2.92;;;15.50;99.90;;;;;;5010195;28;20077;-51
2023/05/31 01:10:02;;;;;;;7.22;2.75;;;15.50;99.90;;;;;;5011784;28;20105;-47
2023/05/31 01:12:46;;;;;;;15.75;3.30;;;15.50;99.80;;;;;;4977491;28;1037924;-48
2023/05/31 01:15:21;;;;;;;10.15;3.30;;;15.50;99.90;;;;;;5014446;28;20109;-47
2023/05/31 01:18:00;;;;;;;8.87;3.10;;;15.50;99.90;;;;;;5014325;28;20034;-48
2023/05/31 01:20:31;;;;;;;7.53;3.08;;;15.50;99.90;;;;;;5013863;28;20117;-47
2023/05/31 01:23:38;;;;;;;8.27;3.40;;;15.40;99.90;;;;;;5014161;28;20489;-47
2023/05/31 01:26:36;;;;;;;8.52;3.17;;;15.50;99.90;;;;;;5014435;28;20033;-50
2023/05/31 01:29:06;;;;;;;16.50;4.18;;;15.40;99.90;;;;;;5014549;28;20022;-53
2023/05/31 01:31:35;;;;;;;8.20;3.20;;;15.20;99.90;;;;;;5013651;28;20022;-52
2023/05/31 01:34:02;;;;;;;8.65;3.85;;;15.30;99.90;;;;;;5014080;28;20040;-49
2023/05/31 01:36:27;;;;;;;9.52;3.35;;;15.20;99.90;;;;;;5013975;28;20036;-49
2023/05/31 01:38:53;;;;;;;12.77;3.58;;;15.30;99.90;;;;;;5013983;28;20022;-51
2023/05/31 01:41:21;;;;;;;9.57;3.30;;;15.20;99.90;;;;;;5013231;28;20026;-49
2023/05/31 01:43:47;;;;;;;10.23;4.15;;;15.10;99.90;;;;;;5013335;28;20022;-51
2023/05/31 01:46:15;;;;;;;7.57;3.63;;;15.10;99.90;;;;;;5013667;28;20038;-48
2023/05/31 01:48:42;;;;;;;10.20;3.67;;;15.10;99.90;;;;;;5013607;28;20061;-47
2023/05/31 01:51:10;;;;;;;11.23;3.67;;;15.10;99.90;;;;;;5013328;28;20038;-47
2023/05/31 01:53:36;;;;;;;12.73;4.07;;;15.00;99.90;;;;;;5013292;28;20025;-50
2023/05/31 01:56:02;;;;;;;10.48;3.58;;;14.80;99.90;;;;;;5013659;28;20034;-48
2023/05/31 01:58:30;;;;;;;13.48;4.05;;;15.00;99.90;;;;;;5013499;28;20061;-52
2023/05/31 02:00:56;;;;;;;6.95;2.97;;;15.00;99.90;;;;;;5012967;28;20026;-53
2023/05/31 02:03:22;;;;;;;15.63;4.03;;;14.90;99.90;;;;;;5013130;28;20445;-48
2023/05/31 02:05:58;;;;;;;8.05;4.22;;;14.90;99.90;;;;;;5013403;28;20026;-46
2023/05/31 02:08:24;;;;;;;11.25;3.28;;;14.80;99.90;;;;;;5013440;28;20025;-48
2023/05/31 02:10:50;;;;;;;9.48;3.75;;;14.80;99.90;;;;;;5012920;28;20034;-51
2023/05/31 02:13:16;;;;;;;4.18;3.08;;;14.80;99.90;;;;;;5011496;28;20070;-48
2023/05/31 02:15:42;;;;;;;6.15;3.28;;;14.70;99.90;;;;;;5013165;28;20034;-50
2023/05/31 02:18:07;;;;;;;6.68;3.53;;;14.70;99.90;;;;;;5013206;28;20541;-49
2023/05/31 02:20:33;;;;;;;7.20;3.65;;;14.90;99.90;;;;;;5012135;28;20040;-49
2023/05/31 02:22:59;;;;;;;8.13;3.65;;;14.70;99.90;;;;;;5012772;28;20030;-48
2023/05/31 02:25:25;;;;;;;12.80;4.90;;;14.70;99.90;;;;;;5012583;28;20045;-50
2023/05/31 02:27:50;;;;;;;10.70;4.22;;;14.70;99.90;;;;;;5012903;28;20022;-51
2023/05/31 02:30:16;;;;;;;8.07;3.10;;;14.60;99.90;;;;;;5012759;28;20029;-48
2023/05/31 02:32:42;;;;;;;9.63;3.65;;;14.60;99.90;;;;;;5012524;28;20378;-50
2023/05/31 02:35:09;;;;;;;13.45;4.10;;;14.60;99.90;;;;;;5012982;28;20419;-47
2023/05/31 02:37:36;;;;;;;13.30;4.60;;;14.60;99.90;;;;;;5012839;28;20436;-50
2023/05/31 02:40:08;;;;;;;13.88;4.50;;;14.60;99.90;;;;;;5012239;28;20029;-49
2023/05/31 02:42:34;;;;;;;8.70;3.63;;;14.50;99.90;;;;;;5012327;28;20018;-47
2023/05/31 02:45:00;;;;;;;12.85;5.00;;;14.50;99.90;;;;;;5012713;28;20029;-49
2023/05/31 02:47:25;;;;;;;12.20;4.10;;;14.40;99.90;;;;;;5012629;28;20109;-48
2023/05/31 02:49:51;;;;;;;10.85;4.32;;;14.40;99.90;;;;;;5012116;28;20441;-47
2023/05/31 02:52:16;;;;;;;11.57;3.75;;;14.40;99.90;;;;;;5012042;28;20033;-48
2023/05/31 02:54:42;;;;;;;7.38;3.58;;;14.40;99.90;;;;;;5012603;28;20029;-52
2023/05/31 02:57:07;;;;;;;10.43;4.30;;;14.30;99.90;;;;;;5012433;28;20029;-51
2023/05/31 02:59:33;;;;;;;7.93;3.97;;;14.30;99.90;;;;;;5011990;28;20112;-51
2023/05/31 03:01:58;;;;;;;7.50;3.70;;;14.30;99.90;;;;;;5012266;28;20033;-49
2023/05/31 03:04:25;;;;;;;9.00;4.05;;;14.20;99.90;;;;;;5012019;28;20026;-48
2023/05/31 03:06:50;;;;;;;10.95;4.93;;;14.20;99.90;;;;;;5012305;28;20152;-50
2023/05/31 03:09:16;;;;;;;10.90;3.80;;;14.20;99.90;;;;;;5012786;28;20096;-47
2023/05/31 03:11:43;;;;;;;12.73;4.18;;;14.30;99.90;;;;;;5011525;28;20034;-47
2023/05/31 03:14:09;;;;;;;11.63;4.80;;;14.30;99.90;;;;;;5011860;28;20038;-46
2023/05/31 03:16:35;;;;;;;10.27;4.50;;;14.20;99.90;;;;;;5011993;28;20107;-51
2023/05/31 03:19:00;;;;;;;10.13;4.45;;;14.20;99.90;;;;;;5011977;28;20077;-46
2023/05/31 03:21:26;;;;;;;10.70;4.22;;;14.30;99.90;;;;;;5011450;28;20109;-47
2023/05/31 03:23:51;;;;;;;11.07;4.47;;;14.20;99.90;;;;;;5010498;28;20552;-48
2023/05/31 03:26:17;;;;;;;11.02;4.63;;;14.20;99.90;;;;;;5012018;28;20153;-50
2023/05/31 03:28:42;;;;;;;20.17;4.63;;;14.20;99.90;;;;;;5011801;28;20026;-47
2023/05/31 03:31:08;;;;;;;13.55;5.13;;;14.20;99.90;;;;;;5011250;28;20022;-46
2023/05/31 03:33:35;;;;;;;10.70;3.90;;;14.20;99.90;;;;;;5010589;28;20032;-48
2023/05/31 03:36:01;;;;;;;9.07;4.43;;;14.10;99.90;;;;;;5011792;28;20022;-49
2023/05/31 03:38:27;;;;;;;12.52;4.10;;;14.00;99.90;;;;;;5012135;28;20018;-49
2023/05/31 03:40:53;;;;;;;11.15;4.60;;;14.00;99.90;;;;;;5011281;28;20125;-47
2023/05/31 03:43:18;;;;;;;12.05;4.00;;;14.00;99.90;;;;;;5011469;28;20124;-48
2023/05/31 03:45:44;;;;;;;9.50;4.07;;;14.00;99.90;;;;;;5011828;28;20026;-47
2023/05/31 03:48:09;;;;;;;8.85;4.50;;;14.10;99.90;;;;;;5011983;28;20030;-47
2023/05/31 03:50:35;;;;;;;10.18;4.53;;;14.00;99.90;;;;;;5010978;28;20476;-50
2023/05/31 03:53:00;;;;;;;12.75;4.60;;;14.00;99.90;;;;;;5011196;28;20065;-47
2023/05/31 03:55:26;;;;;;;8.75;4.53;;;14.00;99.90;;;;;;5011554;28;20052;-50
2023/05/31 03:57:51;;;;;;;11.93;4.32;;;14.00;99.90;;;;;;5011569;28;20040;-46
2023/05/31 04:00:17;;;;;;;11.32;4.45;;;14.10;99.90;;;;;;5010926;28;20084;-47
2023/05/31 04:02:43;;;;;;;8.27;3.88;;;14.00;99.90;;;;;;5011161;28;20367;-47
2023/05/31 04:05:08;;;;;;;8.73;4.40;;;14.00;99.90;;;;;;5011443;28;20036;-49
2023/05/31 04:07:34;;;;;;;7.90;3.92;;;14.00;99.90;;;;;;5011419;28;20551;-47
2023/05/31 04:09:59;;;;;;;16.45;4.88;;;14.00;99.90;;;;;;5011137;28;20026;-47
2023/05/31 04:12:25;;;;;;;12.55;4.20;;;14.00;99.90;;;;;;5011060;28;20042;-49
2023/05/31 04:14:51;;;;;;;11.32;4.57;;;14.00;99.90;;;;;;5012061;28;20030;-47
2023/05/31 04:17:16;;;;;;;10.13;4.28;;;14.10;99.90;;;;;;5011705;28;20022;-49
2023/05/31 04:19:42;;;;;;;9.48;4.28;;;14.10;99.90;;;;;;5010997;28;20034;-50
2023/05/31 04:22:07;;;;;;;19.42;4.38;;;14.10;99.90;;;;;;5010324;28;20025;-50
2023/05/31 04:24:33;;;;;;;8.48;4.47;;;14.20;99.90;;;;;;5010030;28;20080;-47
2023/05/31 04:26:58;;;;;;;13.05;5.20;;;14.20;99.90;;;;;;5011583;28;20026;-49
2023/05/31 04:29:26;;;;;;;10.95;5.00;;;14.30;99.90;;;;;;5011277;28;20032;-47
2023/05/31 04:31:51;;;;;;;13.30;5.10;;;14.30;99.90;;;;;;5010709;28;20113;-48
2023/05/31 04:34:18;;;;;;;10.98;4.40;;;14.30;99.90;;;;;;5010904;28;20061;-50
2023/05/31 04:36:48;;;;;;;6.70;4.30;;;14.40;99.90;;;;;;5011331;28;20030;-48
2023/05/31 04:39:17;;;;;;;13.35;4.50;;;14.50;99.90;;;;;;5011272;28;20026;-49
2023/05/31 04:41:43;;;;;;;13.52;5.13;;;14.60;99.90;;;;;;5010662;28;20109;-46
2023/05/31 04:44:08;;;;;;;9.25;3.55;;;14.70;99.90;;;;;;5012068;28;20496;-49
2023/05/31 04:46:34;;;;;;;11.50;4.38;;;14.80;99.90;;;;;;5014790;28;20033;-48
2023/05/31 04:49:00;;;;;;;10.43;4.30;;;15.00;99.90;;;;;;5014879;28;20082;-51
2023/05/31 04:51:26;;;;;;;6.05;4.35;;;15.20;99.90;;;;;;5014378;28;20025;-48
2023/05/31 04:53:52;;;;;;;6.65;4.13;;;15.50;99.90;;;;;;5014395;28;20466;-50
2023/05/31 04:56:18;;;;;;;11.50;3.55;;;15.90;99.90;;;;;;5014640;28;20057;-52
2023/05/31 04:58:43;;;;;;;8.00;4.22;;;16.60;99.90;;;;;;5014799;28;20065;-49
2023/05/31 05:01:12;;;;;;;11.77;3.92;;;17.20;99.90;;;;;;5013889;28;20057;-51
2023/05/31 05:03:37;;;;;;;9.07;4.70;;;17.50;99.90;;;;;;5014409;28;20164;-48
2023/05/31 05:06:13;;;;;;;7.57;2.97;;;17.90;99.40;;;;;;5014648;28;20109;-50
2023/05/31 05:08:39;;;;;;;9.48;4.68;;;18.60;97.90;;;;;;5014545;28;20029;-52
2023/05/31 05:11:05;;;;;;;5.80;3.20;;;19.10;97.10;;;;;;5013767;28;20034;-50
2023/05/31 05:13:30;;;;;;;8.32;3.97;;;19.70;96.00;;;;;;5013943;28;20038;-48
2023/05/31 05:15:56;;;;;;;9.07;3.83;;;19.90;95.30;;;;;;5014401;28;20109;-48
2023/05/31 05:18:21;;;;;;;9.82;4.22;;;20.00;94.70;;;;;;5014421;28;20045;-48
2023/05/31 05:20:47;;;;;;;9.30;3.83;;;20.20;94.70;;;;;;5013772;28;20167;-48
2023/05/31 05:23:12;;;;;;;6.57;3.42;;;20.50;93.90;;;;;;5013995;28;20033;-47
2023/05/31 05:25:38;;;;;;;8.20;3.97;;;20.60;93.40;;;;;;5012893;28;20458;-47
2023/05/31 05:28:03;;;;;;;10.57;3.28;;;20.90;93.50;;;;;;5014064;28;20109;-48
2023/05/31 05:30:29;;;;;;;5.45;3.00;;;21.20;92.80;;;;;;5013585;28;20022;-47
2023/05/31 05:32:55;;;;;;;8.82;3.42;;;21.50;92.00;;;;;;5013342;28;20114;-47
2023/05/31 05:35:21;;;;;;;8.43;3.40;;;21.60;91.60;;;;;;5013833;28;20033;-47
2023/05/31 05:37:46;;;;;;;7.68;3.53;;;21.70;91.30;;;;;;5013636;28;20033;-48
2023/05/31 05:40:12;;;;;;;7.88;2.90;;;22.00;91.40;;;;;;5013087;28;20076;-49
2023/05/31 05:42:37;;;;;;;8.52;2.97;;;22.00;90.80;;;;;;5013685;28;20394;-47
2023/05/31 05:45:09;;;;;;;10.95;4.10;;;22.00;90.50;;;;;;5013651;28;20388;-51
2023/05/31 05:47:35;;;;;;;6.10;2.80;;;21.80;90.80;;;;;;5013739;28;20054;-51
2023/05/31 05:50:01;;;;;;;9.30;3.08;;;21.90;91.00;;;;;;5013176;28;20030;-49
2023/05/31 05:52:26;;;;;;;5.32;2.90;;;22.60;89.20;;;;;;5013647;28;20095;-52
2023/05/31 05:54:52;;;;;;;18.77;5.40;;;22.10;89.60;;;;;;5013022;28;20087;-52
2023/05/31 05:57:19;;;;;;;14.82;5.40;;;22.50;89.60;;;;;;5012885;28;20101;-50
2023/05/31 05:59:44;;;;;;;6.50;2.75;;;22.80;87.50;;;;;;5013019;28;20026;-47
2023/05/31 06:02:10;;;;;;;10.68;3.58;;;22.60;87.40;;;;;;5013289;28;20401;-49
2023/05/31 06:04:36;;;;;;;8.30;2.83;;;22.80;87.50;;;;;;5013205;28;20061;-49
2023/05/31 06:07:02;;;;;;;4.78;2.80;;;22.90;85.20;;;;;;5012028;28;20029;-49
2023/05/31 06:09:27;;;;;;;7.72;3.85;;;22.60;86.50;;;;;;5013203;28;20441;-49
2023/05/31 06:11:53;;;;;;;7.05;2.70;;;22.70;85.90;;;;;;5011335;28;20030;-48
2023/05/31 06:14:18;;;;;;;8.50;3.35;;;22.80;85.60;;;;;;5013085;28;20030;-53
2023/05/31 06:16:44;;;;;;;8.48;3.25;;;23.10;85.00;;;;;;5013103;28;20105;-48
2023/05/31 06:19:09;;;;;;;8.85;3.00;;;23.10;84.00;;;;;;5013034;28;20030;-49
2023/05/31 06:21:35;;;;;;;8.13;2.95;;;22.80;85.80;;;;;;5012487;28;20084;-50
2023/05/31 06:24:02;;;;;;;8.52;2.72;;;23.40;85.10;;;;;;5011665;28;20026;-48
2023/05/31 06:26:27;;;;;;;10.35;2.75;;;24.00;82.60;;;;;;5012940;28;20025;-48
2023/05/31 06:28:53;;;;;;;6.72;2.40;;;23.80;82.40;;;;;;5013013;28;20393;-49
2023/05/31 06:31:18;;;;;;;4.35;2.83;;;23.70;81.30;;;;;;5012426;28;20025;-49
2023/05/31 06:33:44;;;;;;;7.28;2.65;;;23.30;81.70;;;;;;5012529;28;20444;-52
2023/05/31 06:36:10;;;;;;;16.70;2.50;;;22.90;82.60;;;;;;5012648;28;20513;-52
2023/05/31 06:38:35;;;;;;;4.88;2.30;;;22.90;83.10;;;;;;5012802;28;20126;-49
2023/05/31 06:41:01;;;;;;;10.95;2.95;;;23.00;82.30;;;;;;5012176;28;20030;-51
2023/05/31 06:43:26;;;;;;;11.13;2.53;;;23.30;81.30;;;;;;5012241;28;20026;-47
2023/05/31 06:45:52;;;;;;;8.55;2.42;;;23.80;81.60;;;;;;5012447;28;20194;-48
2023/05/31 06:48:17;;;;;;;5.40;2.38;;;24.40;80.20;;;;;;5012552;28;20030;-51
2023/05/31 06:50:43;;;;;;;4.78;2.38;;;25.00;78.80;;;;;;5012072;28;20030;-51
2023/05/31 06:53:12;;;;;;;10.77;2.60;;;25.40;76.90;;;;;;5010858;28;20032;-53
2023/05/31 06:55:38;;;;;;;4.95;3.40;;;25.60;76.80;;;;;;5012476;28;20486;-48
2023/05/31 06:58:04;;;;;;;9.13;2.42;;;25.60;75.90;;;;;;5012816;28;20034;-50
2023/05/31 07:00:30;;;;;;;8.68;2.72;;;25.10;76.60;;;;;;5011738;28;20092;-49
2023/05/31 07:02:55;;;;;;;8.68;2.50;;;25.20;75.00;;;;;;5011789;28;20081;-54
2023/05/31 07:05:21;;;;;;;6.13;2.17;;;25.20;76.00;;;;;;5012033;28;20026;-50
2023/05/31 07:07:47;;;;;;;10.32;2.70;;;25.60;73.60;;;;;;5010586;28;20029;-50
2023/05/31 07:10:13;;;;;;;5.50;2.65;;;25.70;74.80;;;;;;5011809;28;20030;-53
2023/05/31 07:12:39;;;;;;;4.88;2.10;;;25.80;73.40;;;;;;5011699;28;20029;-48
2023/05/31 07:15:05;;;;;;;4.93;2.50;;;25.50;71.70;;;;;;5012193;28;20076;-48
2023/05/31 07:17:30;;;;;;;7.47;2.28;;;25.60;72.90;;;;;;5012143;28;20034;-47
2023/05/31 07:19:56;;;;;;;7.97;2.13;;;25.70;72.60;;;;;;5011360;28;20026;-50
2023/05/31 07:22:22;;;;;;;6.13;2.30;;;25.90;71.70;;;;;;5011713;28;20018;-51
2023/05/31 07:24:48;;;;;;;2.83;2.25;;;26.30;72.00;;;;;;5010898;28;20083;-47
2023/05/31 07:27:13;;;;;;;3.40;2.28;;;26.60;71.70;;;;;;5012027;28;20021;-51
2023/05/31 07:29:39;;;;;;;5.47;2.58;;;26.80;68.90;;;;;;5011366;28;20049;-48
2023/05/31 07:32:05;;;;;;;8.02;2.22;;;27.00;68.80;;;;;;5011546;28;20034;-49
2023/05/31 07:34:31;;;;;;;6.85;2.58;;;26.70;69.50;;;;;;5011300;28;20448;-49
2023/05/31 07:36:57;;;;;;;4.40;2.08;;;26.40;69.60;;;;;;5011831;28;20034;-49
2023/05/31 07:39:22;;;;;;;2.70;2.15;;;26.40;70.50;;;;;;5012144;28;20018;-49
2023/05/31 07:41:48;;;;;;;6.07;2.03;;;27.10;70.40;;;;;;5011980;28;20379;-48
2023/05/31 07:44:16;;;;;;;11.18;2.33;;;26.60;68.50;;;;;;5012744;28;20029;-47
2023/05/31 07:46:42;;;;;;;3.53;2.30;;;26.50;69.30;;;;;;5012634;28;20030;-48
2023/05/31 07:49:07;;;;;;;8.45;2.45;;;26.40;69.30;;;;;;5012378;28;20026;-51
2023/05/31 07:51:33;;;;;;;3.70;2.05;;;26.10;69.60;;;;;;5011057;28;20033;-50
2023/05/31 07:53:59;;;;;;;5.68;2.38;;;26.00;68.60;;;;;;5011255;28;20049;-53
2023/05/31 07:56:25;;;;;;;6.07;2.13;;;26.20;69.00;;;;;;5011659;28;20034;-48
2023/05/31 07:58:50;;;;;;;6.50;1.88;;;26.90;68.30;;;;;;5011578;28;20033;-49
2023/05/31 08:01:16;;;;;;;8.88;2.75;;;26.90;67.10;;;;;;5011279;28;20036;-50
2023/05/31 08:03:41;;;;;;;3.40;2.17;;;26.80;67.10;;;;;;5011333;28;20505;-54
2023/05/31 08:06:07;;;;;;;5.38;2.30;;;27.10;66.80;;;;;;5011438;28;20030;-50
2023/05/31 08:08:33;;;;;;;4.30;2.10;;;27.30;66.90;;;;;;5011358;28;20022;-48
2023/05/31 08:11:00;;;;;;;5.05;1.88;;;27.30;67.40;;;;;;5011131;28;20022;-50
2023/05/31 08:13:26;;;;;;;5.90;2.03;;;27.60;65.80;;;;;;5010903;28;20029;-51
2023/05/31 08:15:52;;;;;;;7.93;2.28;;;27.20;66.30;;;;;;5011310;28;20026;-49
2023/05/31 08:18:18;;;;;;;8.93;2.30;;;27.10;66.60;;;;;;5011628;28;20494;-50
2023/05/31 08:20:43;;;;;;;3.65;1.83;;;26.20;67.10;;;;;;5014707;28;20030;-52
2023/05/31 08:23:16;;;;;;;3.08;2.03;;;25.60;67.80;;;;;;5014903;28;20125;-51
2023/05/31 08:25:42;;;;;;;5.97;2.40;;;25.10;68.30;;;;;;5014194;28;20066;-50
2023/05/31 08:28:07;;;;;;;6.30;2.63;;;24.60;70.30;;;;;;5015272;28;20370;-49
2023/05/31 08:30:32;;;;;;;5.72;2.10;;;24.70;70.80;;;;;;5014723;28;20061;-51
2023/05/31 08:32:58;;;;;;;4.65;2.13;;;24.50;70.50;;;;;;5014782;28;20060;-50
2023/05/31 08:35:24;;;;;;;3.97;1.73;;;24.10;70.60;;;;;;5015056;28;20037;-47
2023/05/31 08:37:50;;;;;;;8.07;2.17;;;24.00;71.70;;;;;;5015030;28;20026;-47
2023/05/31 08:40:16;;;;;;;3.22;2.20;;;23.90;73.10;;;;;;5014178;28;20030;-50
2023/05/31 08:42:52;;;;;;;4.18;2.10;;;24.20;71.10;;;;;;5014814;28;20560;-48
2023/05/31 08:45:18;;;;;;;8.80;2.53;;;24.20;71.40;;;;;;5015272;28;20489;-48
2023/05/31 08:47:50;;;;;;;4.22;2.10;;;24.00;72.40;;;;;;5015087;28;20400;-51
2023/05/31 08:50:17;;;;;;;5.93;2.25;;;23.90;72.40;;;;;;5014509;28;20049;-52
2023/05/31 08:52:45;;;;;;;4.90;2.10;;;24.00;71.60;;;;;;5013054;28;20109;-46
2023/05/31 08:55:11;;;;;;;12.73;2.63;;;24.30;71.20;;;;;;5014809;28;20383;-50
2023/05/31 08:57:37;;;;;;;5.55;1.88;;;24.60;72.50;;;;;;5014653;28;20030;-50
2023/05/31 09:00:08;;;;;;;5.68;2.92;;;24.90;71.30;;;;;;5014149;28;20033;-49
2023/05/31 09:02:34;;;;;;;6.80;2.10;;;24.80;68.10;;;;;;5014195;28;20029;-50
2023/05/31 09:05:00;;;;;;;2.90;1.95;;;24.40;69.00;;;;;;5014662;28;20045;-49
2023/05/31 09:07:26;;;;;;;4.95;2.10;;;24.50;68.50;;;;;;5014438;28;20390;-50
2023/05/31 09:09:52;;;;;;;4.00;1.88;;;24.40;67.70;;;;;;5014108;28;20032;-52
2023/05/31 09:12:17;;;;;;;6.13;1.95;;;24.50;68.40;;;;;;5013930;28;20030;-53
2023/05/31 09:14:43;;;;;;;5.75;2.63;;;24.50;66.20;;;;;;5014678;28;20033;-47
2023/05/31 09:17:09;;;;;;;10.82;2.47;;;24.30;64.80;;;;;;5014624;28;20041;-51
2023/05/31 09:19:40;;;;;;;8.50;1.80;;;24.50;65.80;;;;;;5014463;28;20021;-48
2023/05/31 09:22:06;;;;;;;3.80;2.03;;;24.40;64.50;;;;;;5014611;28;20393;-51
2023/05/31 09:24:31;;;;;;;8.95;2.75;;;24.70;64.90;;;;;;5012868;28;20034;-47
2023/05/31 09:26:57;;;;;;;4.40;1.63;;;24.40;63.60;;;;;;5006508;28;20168;-49
2023/05/31 09:29:23;;;;;;;3.60;1.83;;;24.20;64.60;;;;;;5012771;28;20022;-49
2023/05/31 09:32:06;;;;;;;4.25;1.92;;;24.20;65.10;;;;;;5013402;28;20036;-47
2023/05/31 09:34:32;;;;;;;5.88;1.75;;;24.10;64.10;;;;;;5013870;28;20458;-51
2023/05/31 09:37:01;;;;;;;7.22;1.85;;;24.10;64.20;;;;;;5013499;28;20045;-49
2023/05/31 09:39:27;;;;;;;5.43;1.77;;;24.40;65.10;;;;;;5013426;28;20105;-47
2023/05/31 09:41:55;;;;;;;3.92;1.77;;;24.10;63.50;;;;;;5011810;28;20029;-50
2023/05/31 09:44:26;;;;;;;4.05;1.75;;;24.00;63.20;;;;;;5013516;28;20132;-47
2023/05/31 09:46:52;;;;;;;4.70;1.67;;;24.10;63.90;;;;;;5013867;28;20026;-49
2023/05/31 09:49:19;;;;;;;3.03;1.70;;;24.00;62.20;;;;;;5013570;28;20080;-53
2023/05/31 09:51:52;;;;;;;3.17;1.52;;;23.70;62.40;;;;;;5005174;28;20108;-49
2023/05/31 09:54:22;;;;;;;6.20;1.70;;;23.60;63.40;;;;;;5012867;28;20101;-50
2023/05/31 09:56:48;;;;;;;12.57;2.00;;;23.70;62.90;;;;;;5013109;28;20033;-51
2023/05/31 09:59:15;;;;;;;3.47;1.73;;;23.90;63.00;;;;;;5013430;28;20025;-51
2023/05/31 10:01:41;;;;;;;2.58;1.50;;;23.50;63.20;;;;;;5011659;28;20378;-53
2023/05/31 10:04:07;;;;;;;2.53;1.48;;;23.40;63.40;;;;;;5004595;28;20033;-52
2023/05/31 10:06:35;;;;;;;7.60;2.22;;;23.50;63.00;;;;;;5013642;28;20022;-52
2023/05/31 10:09:05;;;;;;;5.28;1.48;;;23.60;63.90;;;;;;5006851;28;20478;-52
2023/05/31 10:11:34;;;;;;;3.72;2.08;;;23.60;62.60;;;;;;5008128;28;20404;-51
2023/05/31 10:14:17;;;;;;;9.95;1.85;;;23.50;61.90;;;;;;5012725;28;20109;-49
2023/05/31 10:16:49;;;;;;;5.05;1.90;;;23.80;63.60;;;;;;4997716;28;20037;-50
2023/05/31 10:19:22;;;;;;;5.55;1.63;;;23.90;63.30;;;;;;5002063;28;20026;-48
2023/05/31 10:21:49;;;;;;;3.40;1.48;;;23.90;63.00;;;;;;5011494;28;20547;-47
2023/05/31 10:24:23;;;;;;;5.25;1.80;;;23.90;62.20;;;;;;5012654;28;20034;-49
2023/05/31 10:27:10;;;;;;;3.13;1.70;;;24.00;63.20;;;;;;5012740;28;20022;-51
2023/05/31 10:29:40;;;;;;;6.43;1.70;;;24.10;63.60;;;;;;4993111;28;20078;-51
2023/05/31 10:32:27;;;;;;;4.00;1.50;;;24.10;61.90;;;;;;5010126;28;20034;-49
2023/05/31 10:34:53;;;;;;;5.03;2.03;;;24.20;63.30;;;;;;5005066;28;20037;-51
2023/05/31 10:37:20;;;;;;;8.23;1.65;;;24.20;62.20;;;;;;5012248;28;20030;-49
2023/05/31 10:40:10;;;;;;;9.88;1.98;;;24.00;61.50;;;;;;5007543;28;20030;-50
2023/05/31 10:42:40;;;;;;;3.85;1.80;;;24.00;63.00;;;;;;5001577;28;20068;-49
2023/05/31 10:45:16;;;;;;;3.95;1.27;;;24.00;61.90;;;;;;5012456;28;20026;-48
2023/05/31 10:47:55;;;;;;;6.65;1.65;;;23.90;63.30;;;;;;5006586;28;20022;-53
2023/05/31 10:50:21;;;;;;;13.88;6.85;;;23.70;62.00;;;;;;5010988;28;20049;-53
2023/05/31 10:53:10;;;;;;;6.63;2.13;;;23.80;62.30;;;;;;4995125;28;20045;-49
2023/05/31 10:55:43;;;;;;;8.07;1.88;;;24.00;62.60;;;;;;5009778;28;20026;-52
2023/05/31 10:58:36;;;;;;;6.28;1.42;;;24.00;59.90;;;;;;5012732;28;20044;-52
2023/05/31 11:01:06;;;;;;;3.67;1.95;;;24.00;61.20;;;;;;5011706;28;20494;-48
2023/05/31 11:03:36;;;;;;;3.97;1.60;;;23.90;61.00;;;;;;5011691;28;20029;-48
2023/05/31 11:06:06;;;;;;;6.22;1.80;;;23.80;61.10;;;;;;5010894;28;20109;-48
2023/05/31 11:08:32;;;;;;;5.07;1.67;;;23.80;61.80;;;;;;5012156;28;20508;-51
2023/05/31 11:11:32;;;;;;;4.65;1.80;;;23.90;61.00;;;;;;5009100;28;20084;-52
2023/05/31 11:14:01;;;;;;;2.58;1.50;;;23.90;61.20;;;;;;5011131;28;20068;-47
2023/05/31 11:16:31;;;;;;;3.25;1.65;;;24.00;60.40;;;;;;5011310;28;20025;-53
2023/05/31 11:19:13;;;;;;;5.03;1.48;;;24.00;61.30;;;;;;5010661;28;20026;-51
2023/05/31 11:21:55;;;;;;;8.57;1.58;;;24.00;60.50;;;;;;5011504;28;20033;-51
2023/05/31 11:24:29;;;;;;;9.15;1.55;;;23.90;61.00;;;;;;5011444;28;20184;-52
2023/05/31 11:26:59;;;;;;;4.18;1.70;;;23.80;61.10;;;;;;5011933;28;20093;-53
2023/05/31 11:29:26;;;;;;;3.10;1.70;;;23.80;62.40;;;;;;5012013;28;20104;-48
2023/05/31 11:31:51;;;;;;;2.78;1.73;;;23.90;61.30;;;;;;5011550;28;20084;-54
2023/05/31 11:34:27;;;;;;;5.90;1.58;;;23.90;61.00;;;;;;5011405;28;20494;-47
2023/05/31 11:36:56;;;;;;;3.50;1.85;;;24.10;62.80;;;;;;5011645;28;20480;-53
2023/05/31 11:39:22;;;;;;;4.00;1.25;;;24.00;60.50;;;;;;5010591;28;20026;-52
2023/05/31 11:41:48;;;;;;;8.18;1.65;;;24.00;59.70;;;;;;5010760;28;20040;-49
2023/05/31 11:44:16;;;;;;;2.45;1.38;;;24.00;61.30;;;;;;5007481;28;20040;-46
2023/05/31 11:46:46;;;;;;;2.78;1.40;;;24.10;59.40;;;;;;4994943;28;20050;-52
2023/05/31 11:49:13;;;;;;;3.08;1.60;;;24.10;59.60;;;;;;5003628;28;20425;-47
2023/05/31 11:51:43;;;;;;;14.38;2.50;;;24.00;60.70;;;;;;5011223;28;20160;-45
2023/05/31 11:54:11;;;;;;;5.75;1.92;;;24.00;61.70;;;;;;5005923;28;20026;-49
2023/05/31 11:56:37;;;;;;;4.05;1.40;;;23.90;59.90;;;;;;5005896;28;20021;-45
2023/05/31 11:59:02;;;;;;;4.65;1.38;;;24.10;60.00;;;;;;4994799;28;20027;-47
2023/05/31 12:01:34;;;;;;;2.92;1.30;;;24.00;60.30;;;;;;4997187;28;20052;-46
2023/05/31 12:04:00;;;;;;;4.35;2.22;;;24.00;60.30;;;;;;5012477;28;20037;-51
2023/05/31 12:06:28;;;;;;;5.72;2.88;;;24.10;60.90;;;;;;5013049;28;20022;-46
2023/05/31 12:08:54;;;;;;;3.35;1.50;;;24.20;60.90;;;;;;5009067;28;20130;-47
2023/05/31 12:11:21;;;;;;;3.28;1.30;;;24.20;61.60;;;;;;4994440;28;20045;-46
2023/05/31 12:13:47;;;;;;;4.65;1.20;;;24.20;59.90;;;;;;5002333;28;20053;-51
2023/05/31 12:16:13;;;;;;;3.58;1.83;;;24.20;60.70;;;;;;5010799;28;20029;-48
2023/05/31 12:18:38;;;;;;;8.25;1.73;;;24.20;61.60;;;;;;5011838;28;20026;-49
2023/05/31 12:21:11;;;;;;;6.72;1.60;;;24.30;61.00;;;;;;5009609;28;20034;-46
2023/05/31 12:23:57;;;;;;;4.80;1.33;;;24.40;59.60;;;;;;5011161;28;20022;-48
2023/05/31 12:26:24;;;;;;;3.28;1.42;;;24.40;58.90;;;;;;4999015;28;20023;-50
2023/05/31 12:28:52;;;;;;;2.70;1.30;;;24.30;58.70;;;;;;4991787;28;20027;-47
2023/05/31 12:31:28;;;;;;;3.92;1.48;;;24.50;60.20;;;;;;5007980;28;20030;-48
2023/05/31 12:34:06;;;;;;;3.33;1.42;;;24.60;59.00;;;;;;5003044;28;20093;-51
2023/05/31 12:36:44;;;;;;;5.38;1.50;;;24.60;57.80;;;;;;4995176;28;20026;-52
2023/05/31 12:39:13;;;;;;;8.68;1.65;;;24.60;58.40;;;;;;5010306;28;20040;-47
2023/05/31 12:41:46;;;;;;;5.45;1.67;;;24.60;58.50;;;;;;4990945;28;20023;-48
2023/05/31 12:44:13;;;;;;;1.35;1.17;;;24.60;57.90;;;;;;4990983;28;20022;-54
2023/05/31 12:46:44;;;;;;;7.63;2.25;;;24.60;59.20;;;;;;4991781;28;20026;-52